Atlantic - Newfoundland: Past 24 Hour Conditions

 

St. John's Int'l Airport

02:30 AM NDT 20 September 2014
This table is a summary of hourly weather conditions for the past 24 hours.
Date / Time
(NDT)
Wind(knots) Conditions Visibility(km) Pressure(kPa) Air tempC) Relative humidity(%) Dew pointC)
20 September 2014
2:30 WNW 20 Clear 24 101.8 6 61 -1
1:30 NW 16 gust 25 Clear 24 101.7 6 60 -1
0:30 NW 19 gust 27 Mainly Clear 24 101.6 7 65 1
19 September 2014
23:30 NW 15 Mostly Cloudy 24 101.5 8 66 2
22:30 NNW 13 Cloudy 24 101.5 8 76 4
21:30 N 10 Mostly Cloudy 24 101.4 8 81 5
20:30 N 5 Mostly Cloudy 24 101.3 9 81 5
19:30 NNW 5 Partly Cloudy 24 101.3 9 65 3
18:30 NW 10 Partly Cloudy 24 101.2 11 60 4
17:30 NW 10 gust 16 Partly Cloudy 24 101.1 11 72 7
16:30 NW 11 Partly Cloudy 24 101.1 11 79 8
15:30 NNW 14 Mostly Cloudy 24 101.0 11 83 8
14:30 NNW 14 gust 21 Cloudy 24 101.0 11 92 10
13:30 WSW 12 gust 19 Mostly Cloudy 24 100.9 17 66 11
12:30 W 9 Partly Cloudy 24 100.9 18 68 12
11:30 W 8 Mostly Cloudy 24 100.9 15 84 13
10:30 W 8 Mostly Cloudy 24 101.0 15 86 12
9:30 W 6 Mostly Cloudy 24 101.0 14 83 11
8:30 WSW 4 Mostly Cloudy 24 101.0 13 90 12
7:30 W 4 Mostly Cloudy 24 101.0 12 95 12
6:30 SW 4 Mostly Cloudy 24 101.0 12 96 11
5:30 S 4 Cloudy 24 101.0 12 97 11
4:30 SSE 4 Partly Cloudy 24 101.1 11 97 10
3:30 S 2 Mostly Cloudy 24 101.1 12 95 11
2:30 S 6 Cloudy 24 101.2 12 94 11
 
Map of Atlantic - Newfoundland marine weather areas Southwestern Grand Banks - 44138 Banquereau - 44139 Tail of the Bank - 44140 Nickerson Bank - 44251 Northeast Burgeo Bank - 44255 Blanc-Sablon Airport Cap Whittle Chevery Natashquan Airport Heath Point Miscou Island Grand Étang Ingonish Beach North Mountain St.Paul Island J.A. Douglas McCurdy Sydney Airport Charlottetown Airport East Point North Cape Argentia Bonavista Burgeo Cape Race Corner Brook Daniel's Harbour Englee Ferolle Point La Scie Port aux Basques Rocky Harbour Sagona Island St. Anthony Airport St. John's Int'l Airport St. Lawrence Stephenville Airport Twillingate Winterland Wreckhouse Cartwright Airport Mary's Harbour Grates Cove Pool's Island Marticot Island Long Pond Îles de la Madeleine Airport
Legend: buoyBuoy land stationLand Station